createdAt,value
2022-10-30T00:04:49.039Z,18.35
2022-10-30T00:09:50.835Z,18.39
2022-10-30T00:14:52.618Z,18.40
2022-10-30T00:19:54.423Z,18.36
2022-10-30T00:24:56.525Z,18.23
2022-10-30T00:29:58.335Z,18.16
2022-10-30T00:35:00.369Z,18.13
2022-10-30T00:40:02.370Z,18.08
2022-10-30T00:45:04.481Z,18.00
2022-10-30T00:50:12.587Z,17.87
2022-10-30T00:55:19.818Z,17.76
2022-10-30T01:00:24.540Z,17.79
2022-10-30T01:05:28.853Z,17.73
2022-10-30T01:10:30.893Z,17.66
2022-10-30T01:15:41.979Z,17.71
2022-10-30T01:21:20.006Z,17.74
2022-10-30T01:26:59.370Z,17.76
2022-10-30T01:32:21.355Z,17.73
2022-10-30T01:37:31.779Z,17.72
2022-10-30T01:42:52.574Z,17.63
2022-10-30T01:48:01.154Z,17.44
2022-10-30T01:53:28.158Z,17.37
2022-10-30T01:58:41.371Z,17.34
2022-10-30T02:03:44.685Z,17.39
2022-10-30T02:08:46.538Z,17.33
2022-10-30T02:13:51.928Z,17.23
2022-10-30T02:18:54.167Z,17.12
2022-10-30T02:23:56.012Z,17.08
2022-10-30T02:28:57.860Z,17.07
2022-10-30T02:33:59.682Z,17.07
2022-10-30T02:39:02.346Z,17.16
2022-10-30T02:44:05.010Z,17.18
2022-10-30T02:49:06.913Z,17.19
2022-10-30T02:54:08.980Z,17.22
2022-10-30T02:59:10.909Z,17.25
2022-10-30T03:04:12.882Z,17.25
2022-10-30T03:09:14.743Z,17.17
2022-10-30T03:14:16.624Z,17.05
2022-10-30T03:19:19.744Z,17.03
2022-10-30T03:24:21.654Z,16.98
2022-10-30T03:29:23.527Z,16.99
2022-10-30T03:34:25.537Z,17.00
2022-10-30T03:39:27.421Z,17.10
2022-10-30T03:44:29.213Z,17.17
2022-10-30T03:49:31.730Z,17.22
2022-10-30T03:54:35.608Z,17.21
2022-10-30T03:59:37.637Z,17.08
2022-10-30T04:05:02.187Z,17.08
2022-10-30T04:10:04.313Z,17.08
2022-10-30T04:15:08.667Z,17.11
2022-10-30T04:20:10.954Z,17.13
2022-10-30T04:25:13.212Z,17.12
2022-10-30T04:30:15.716Z,17.11
2022-10-30T04:35:19.405Z,17.09
2022-10-30T04:40:23.440Z,17.10
2022-10-30T04:45:31.045Z,17.05
2022-10-30T04:50:34.571Z,16.95
2022-10-30T04:55:36.587Z,16.80
2022-10-30T05:00:38.415Z,16.70
2022-10-30T05:05:56.988Z,16.61
2022-10-30T05:10:59.546Z,16.50
2022-10-30T05:16:01.400Z,16.37
2022-10-30T05:21:03.537Z,16.30
2022-10-30T05:26:05.418Z,16.30
2022-10-30T05:31:07.395Z,16.30
2022-10-30T05:36:35.266Z,16.34
2022-10-30T05:41:38.156Z,16.34
2022-10-30T05:46:40.062Z,16.41
2022-10-30T05:51:58.585Z,16.49
2022-10-30T05:57:00.509Z,16.48
2022-10-30T06:02:03.884Z,16.45
2022-10-30T06:07:06.370Z,16.54
2022-10-30T06:12:09.336Z,16.60
2022-10-30T06:17:24.979Z,16.72
2022-10-30T06:22:35.104Z,16.80
2022-10-30T06:27:46.062Z,16.78
2022-10-30T06:32:48.809Z,16.75
2022-10-30T06:37:51.316Z,16.97
2022-10-30T06:42:54.711Z,17.05
2022-10-30T06:48:26.141Z,17.06
2022-10-30T06:53:29.995Z,17.16
2022-10-30T06:58:47.661Z,17.29
2022-10-30T07:04:09.885Z,17.30
2022-10-30T07:09:12.646Z,17.46
2022-10-30T07:14:14.795Z,17.70
2022-10-30T07:19:28.623Z,17.96
2022-10-30T07:24:31.483Z,18.23
2022-10-30T07:29:51.759Z,18.48
2022-10-30T07:34:59.962Z,18.53
2022-10-30T07:40:28.018Z,18.50
2022-10-30T07:45:54.031Z,18.52
2022-10-30T07:51:11.045Z,18.64
2022-10-30T07:56:12.901Z,18.83
2022-10-30T08:01:40.989Z,19.22
2022-10-30T08:06:55.947Z,19.47
2022-10-30T08:11:57.826Z,19.49
2022-10-30T08:16:59.616Z,19.76
2022-10-30T08:22:02.306Z,20.03
2022-10-30T08:27:08.090Z,20.27
2022-10-30T08:32:10.842Z,20.42
2022-10-30T08:37:31.120Z,20.60
2022-10-30T08:42:33.147Z,20.71
2022-10-30T08:47:39.004Z,20.91
2022-10-30T08:52:42.516Z,21.18
2022-10-30T08:57:45.348Z,21.48
2022-10-30T09:02:47.380Z,21.74
2022-10-30T09:08:21.560Z,22.08
2022-10-30T09:13:52.325Z,22.31
2022-10-30T09:18:54.311Z,22.39
2022-10-30T09:23:57.904Z,22.44
2022-10-30T09:29:11.706Z,22.54
2022-10-30T09:34:16.112Z,22.30
2022-10-30T09:39:21.569Z,22.43
2022-10-30T09:45:08.058Z,22.58
2022-10-30T09:50:14.518Z,22.55
2022-10-30T09:55:33.977Z,22.60
2022-10-30T10:01:09.377Z,22.63
2022-10-30T10:06:18.827Z,22.78
2022-10-30T10:11:56.036Z,23.06
2022-10-30T10:17:01.979Z,23.28
2022-10-30T10:22:14.454Z,23.54
2022-10-30T10:27:35.060Z,23.73
2022-10-30T10:32:51.872Z,23.92
2022-10-30T10:38:17.892Z,24.11
2022-10-30T10:43:22.411Z,24.28
2022-10-30T10:49:04.106Z,24.56
2022-10-30T10:54:19.344Z,24.81
2022-10-30T10:59:32.970Z,25.07
2022-10-30T11:04:41.907Z,25.31
2022-10-30T11:09:44.976Z,25.36
2022-10-30T11:14:46.966Z,25.41
2022-10-30T11:19:52.345Z,25.49
2022-10-30T11:24:54.142Z,25.64
2022-10-30T11:29:59.779Z,25.66
2022-10-30T11:35:07.449Z,25.73
2022-10-30T11:40:12.279Z,25.80
2022-10-30T11:45:24.319Z,25.92
2022-10-30T11:50:32.916Z,26.05
2022-10-30T11:55:54.988Z,26.25
2022-10-30T12:01:21.203Z,26.38
2022-10-30T12:06:22.980Z,26.41
2022-10-30T12:11:32.666Z,26.41
2022-10-30T12:16:34.648Z,26.39
2022-10-30T12:21:39.991Z,26.45
2022-10-30T12:26:46.478Z,26.56
2022-10-30T12:32:19.390Z,26.79
2022-10-30T12:37:30.008Z,26.91
2022-10-30T12:42:38.031Z,27.12
2022-10-30T12:47:48.721Z,27.23
2022-10-30T12:53:34.614Z,27.51
2022-10-30T12:58:39.756Z,28.07
2022-10-30T13:04:10.721Z,29.91
2022-10-30T13:09:37.982Z,32.15
2022-10-30T13:14:50.034Z,33.74
2022-10-30T13:19:51.939Z,34.71
2022-10-30T13:25:14.371Z,35.58
2022-10-30T13:30:20.083Z,36.38
2022-10-30T13:35:33.663Z,36.47
2022-10-30T13:40:44.724Z,36.61
2022-10-30T13:46:11.412Z,36.86
2022-10-30T13:51:35.791Z,36.86
2022-10-30T13:56:38.092Z,36.96
2022-10-30T14:01:47.494Z,37.13
2022-10-30T14:07:10.729Z,36.99
2022-10-30T14:12:53.793Z,33.93
2022-10-30T14:18:14.968Z,31.59
2022-10-30T14:23:20.313Z,30.18
2022-10-30T14:28:22.288Z,29.09
2022-10-30T14:33:54.524Z,28.18
2022-10-30T14:39:00.363Z,27.53
2022-10-30T14:44:25.261Z,27.02
2022-10-30T14:49:45.860Z,26.52
2022-10-30T14:55:29.341Z,26.03
2022-10-30T15:00:37.317Z,25.66
2022-10-30T15:05:49.096Z,25.25
2022-10-30T15:11:22.222Z,24.87
2022-10-30T15:16:27.615Z,24.47
2022-10-30T15:21:34.125Z,24.14
2022-10-30T15:26:39.767Z,23.93
2022-10-30T15:31:41.994Z,23.75
2022-10-30T15:36:44.692Z,23.61
2022-10-30T15:41:51.658Z,23.39
2022-10-30T15:46:57.418Z,23.20
2022-10-30T15:52:01.040Z,22.99
2022-10-30T16:02:29.808Z,22.54
2022-10-30T16:07:32.352Z,22.37
2022-10-30T16:12:36.128Z,22.25
2022-10-30T16:17:38.737Z,22.05
2022-10-30T16:22:41.020Z,21.92
2022-10-30T16:27:44.903Z,21.73
2022-10-30T16:32:55.787Z,21.63
2022-10-30T16:37:58.219Z,21.52
2022-10-30T16:43:03.396Z,21.40
2022-10-30T16:53:22.863Z,20.79
2022-10-30T16:58:28.336Z,20.62
2022-10-30T17:03:37.653Z,20.47
2022-10-30T17:08:43.837Z,20.21
2022-10-30T17:13:54.590Z,20.11
2022-10-30T17:19:20.747Z,20.07
2022-10-30T17:24:28.241Z,20.02
2022-10-30T17:29:42.230Z,20.01
2022-10-30T17:34:44.028Z,20.01
2022-10-30T17:39:45.822Z,19.92
2022-10-30T17:44:47.909Z,19.77
2022-10-30T17:49:49.769Z,19.57
2022-10-30T17:54:51.621Z,19.37
2022-10-30T17:59:53.452Z,19.16
2022-10-30T18:04:55.558Z,19.11
2022-10-30T18:09:57.348Z,19.07
2022-10-30T18:14:59.238Z,19.06
2022-10-30T18:20:01.023Z,19.61
2022-10-30T18:25:02.905Z,19.74
2022-10-30T18:30:05.574Z,19.75
2022-10-30T18:35:36.453Z,19.69
2022-10-30T18:40:38.644Z,19.64
2022-10-30T18:45:42.146Z,19.69
2022-10-30T18:50:44.246Z,19.76
2022-10-30T19:01:10.939Z,19.66
2022-10-30T19:06:16.958Z,19.48
2022-10-30T19:11:24.897Z,19.30
2022-10-30T19:16:28.240Z,19.12
2022-10-30T19:21:33.723Z,19.04
2022-10-30T19:26:35.907Z,18.95
2022-10-30T19:31:38.371Z,18.85
2022-10-30T19:36:40.494Z,18.84
2022-10-30T19:41:42.897Z,18.78
2022-10-30T19:46:45.047Z,18.82
2022-10-30T19:51:47.682Z,18.97
2022-10-30T19:56:49.837Z,18.98
2022-10-30T20:01:52.219Z,18.95
2022-10-30T20:06:57.243Z,18.91
2022-10-30T20:12:01.736Z,18.90
2022-10-30T20:17:03.811Z,18.94
2022-10-30T20:22:05.738Z,18.95
2022-10-30T20:27:10.046Z,18.91
2022-10-30T20:32:12.377Z,18.86
2022-10-30T20:37:14.566Z,18.85
2022-10-30T20:42:20.648Z,18.82
2022-10-30T20:47:22.867Z,18.85
2022-10-30T20:52:24.719Z,18.87
2022-10-30T20:57:26.652Z,18.87
2022-10-30T21:02:28.743Z,18.88
2022-10-30T21:07:31.839Z,18.88
2022-10-30T21:12:33.676Z,18.82
2022-10-30T21:17:35.483Z,18.69
2022-10-30T21:22:37.280Z,18.63
2022-10-30T21:27:39.229Z,18.54
2022-10-30T21:32:41.083Z,18.57
2022-10-30T21:37:42.914Z,18.58
2022-10-30T21:42:48.724Z,18.64
2022-10-30T21:47:53.708Z,18.72
2022-10-30T21:52:55.561Z,18.84
2022-10-30T21:57:57.565Z,18.89
2022-10-30T22:02:59.591Z,18.91
2022-10-30T22:08:01.693Z,18.97
2022-10-30T22:13:04.029Z,19.03
2022-10-30T22:18:05.995Z,19.06
2022-10-30T22:23:07.800Z,19.09
2022-10-30T22:28:09.648Z,19.18
2022-10-30T22:33:11.496Z,19.24
2022-10-30T22:38:14.113Z,18.82
2022-10-30T22:48:17.814Z,18.79
2022-10-30T22:53:19.630Z,19.39
2022-10-30T22:58:22.471Z,19.53
2022-10-30T23:03:24.347Z,19.64
2022-10-30T23:08:26.601Z,19.70
2022-10-30T23:13:28.822Z,19.71
2022-10-30T23:18:31.960Z,19.71
2022-10-30T23:23:38.297Z,19.68
2022-10-30T23:28:40.859Z,19.68
2022-10-30T23:33:42.701Z,19.64
2022-10-30T23:38:44.809Z,19.60
2022-10-30T23:43:46.691Z,19.54
2022-10-30T23:48:49.249Z,19.50
2022-10-30T23:53:51.123Z,19.46
2022-10-30T23:58:53.149Z,19.37
